Observations for PRESTWICK CIV NAVY, United Kingdom (EGPK)

EGPK 140820Z 23009KT 9999 -RA FEW010 SCT025 16/14 Q1012 
EGPK 140750Z 23009KT 9999 FEW009 SCT025 16/14 Q1012 
EGPK 140720Z 23008KT 9999 FEW009 SCT025 16/14 Q1011 
EGPK 140650Z 22007KT 9999 SCT009 BKN025 15/14 Q1011 
EGPK 140620Z 18003KT 9999 SCT009 BKN025 15/13 Q1011 
EGPK 140550Z 21004KT 9999 FEW009 BKN025 14/13 Q1011 
EGPK 140450Z 21005KT 180V240 9999 FEW010 BKN026 15/13 Q1011 
EGPK 140350Z 22002KT 9999 BKN035 15/13 Q1011
EGPK 140250Z 23004KT 9999 BKN035 15/13 Q1011
EGPK 140150Z 24005KT 9999 BKN030 15/13 Q1011
EGPK 140050Z 23005KT 9999 BKN033 15/13 Q1012
EGPK 132350Z 23006KT 9999 BKN033 15/13 Q1012
EGPK 132320Z 25006KT 9999 BKN033 15/13 Q1012
EGPK 132250Z 23005KT 9999 BKN035 15/13 Q1011
EGPK 132220Z 24005KT 9999 BKN035 15/13 Q1011
EGPK 132150Z 23005KT 9999 BKN035 15/13 Q1011
EGPK 132120Z 24005KT 9999 BKN030 15/13 Q1011
EGPK 132050Z 22004KT 9999 BKN030 15/13 Q1011
EGPK 132020Z 16002KT 9999 BKN030 16/14 Q1010
EGPK 131950Z 15002KT 9999 BKN027 16/14 Q1010
EGPK 131920Z VRB02KT 9999 BKN027 16/14 Q1010
EGPK 131850Z 25002KT 9999 BKN027 16/14 Q1010
EGPK 131820Z 27005KT 9999 BKN026 16/14 Q1010
EGPK 131750Z 28006KT 9999 BKN030 16/14 Q1010
EGPK 131720Z 27006KT 9999 FEW014 BKN029 16/14 Q1010 
EGPK 131650Z 27005KT 9999 FEW014 BKN029 16/14 Q1010 
EGPK 131620Z 26006KT 9999 FEW012 BKN025 17/14 Q1010 
EGPK 131550Z 27006KT 9999 FEW010 BKN025 16/15 Q1009 
EGPK 131520Z 27006KT 9999 FEW010 BKN025 16/15 Q1009 
EGPK 131450Z 27008KT 9999 FEW009 BKN025 17/15 Q1009 
EGPK 131420Z 27008KT 9999 FEW009 BKN025 17/15 Q1009 
EGPK 131350Z 27006KT 9999 FEW008 BKN020 17/15 Q1009 
EGPK 131320Z 29006KT 9999 SCT008 BKN018 16/14 Q1009 
EGPK 131250Z 29007KT 9999 SCT008 BKN018 16/14 Q1009 
EGPK 131220Z 28006KT 9000 SCT007 BKN020 16/15 Q1009 
EGPK 131150Z 30006KT 9000 SCT007 BKN020 16/15 Q1009 
EGPK 131120Z 29007KT 7000 SCT007 BKN018 16/15 Q1008 
EGPK 131050Z 28005KT 6000 -DZ FEW005 SCT007 BKN014 16/15 Q1008  
EGPK 131020Z 30004KT 4500 -DZ FEW004 SCT006 BKN012 16/15 Q1008  
EGPK 130950Z VRB03KT 3000 -DZ FEW003 SCT005 BKN010 16/15 Q1008  
EGPK 130920Z 30004KT 9999 4000S FEW006 SCT007 BKN012 15/14 Q1008
EGPK 130850Z 30003KT 5000 FEW006 SCT007 BKN012 15/14 Q1008  
EGPK 130820Z 32002KT 6000 FEW006 SCT007 BKN012 15/14 Q1008  
EGPK 130750Z 02002KT 4000 -DZ FEW004 SCT007 BKN010 15/14 Q1008